FMNNFMNA

Guest
Details From FMNN - Fascene
To FMNA - Arrachart
Flight Number -
Tags Generated
Created
Modified
Stats Distance 82 nm / 152 km
Max Altitude 0 ft / 0 m
Waypoints 2
Social Downloads 1
Likes 0
Share VATSIM

Download

Looking for another format? Having issues loading an existing format? Contact us
Advertisement - Login to hide

Notes

Generated

Route

FMNN FMNA

ID Type Via Altitude Latitude Longitude Leg Dist Tot Dist Heading (true) Name
O FMNN APT - 0 ft / 0 m -13.31932˚ 48.30791˚ - 0 nm - -
O FMNA APT - 0 ft / 0 m -12.34562˚ 49.28606˚ 81 nm 81 nm 45° / 44° ARRACHART

Altitude Profile

Advertisement - Login to hide

FMNN

Details ICAO FMNN (NOS)
Name FASCENE
Region Comoros, Mayotte, Réunion and Madagascar
Timezone Indian/Antananarivo (UTC+3.0)
Stats Elevation 36 ft / 11 m (AMSL)
Location -13.312067° 48.314821°
Runways 1
Magnetic Variation 9.465° W

METAR

Not found

TAF

TAF FMNN 141100Z 1412/1512 30010KT 9999 SCT020CB BKN040 PROB40 TEMPO 1413/1512 4000 TSRA BECMG 1415/1418 16008KT

Decode

Departure Runways

ID Width Length Bearing (true) Bearing (mag) Surface Threshold Offset Overrun Length
05 148 ft / 45 m 7,220 ft / 2,201 m 42.86° 52.33° Asphalt 0 ft / 0 m 164 ft / 50 m
23 148 ft / 45 m 7,220 ft / 2,201 m 222.85° 232.32° Asphalt 0 ft / 0 m 197 ft / 60 m

FMNA

Details ICAO FMNA (DIE)
Name ARRACHART
Region Comoros, Mayotte, Réunion and Madagascar
Timezone Indian/Antananarivo (UTC+3.0)
Stats Elevation 374 ft / 114 m (AMSL)
Location -12.349400° 49.291747°
Runways 1
Magnetic Variation 8.867° W

METAR

Not found

TAF

TAF FMNA 141100Z 1412/1512 14015G25KT 9999 FEW010 BKN017CB TEMPO 1412/1412 4000 TSRA

Decode

Destination Runways

ID Width Length Bearing (true) Bearing (mag) Surface Threshold Offset Overrun Length
13 98 ft / 30 m 4,907 ft / 1,496 m 124.22° 133.09° Asphalt 0 ft / 0 m 100 ft / 30 m
31 98 ft / 30 m 4,907 ft / 1,496 m 304.22° 313.09° Asphalt 0 ft / 0 m 100 ft / 30 m

Popular Alternatives